createdAt,value
2017-06-11T00:00:50.260Z,1018.22
2017-06-11T00:01:50.300Z,1018.23
2017-06-11T00:02:50.353Z,1018.25
2017-06-11T00:03:50.388Z,1018.23
2017-06-11T00:04:50.420Z,1018.19
2017-06-11T00:05:50.458Z,1018.21
2017-06-11T00:06:50.489Z,1018.21
2017-06-11T00:07:50.512Z,1018.21
2017-06-11T00:08:50.564Z,1018.24
2017-06-11T00:09:50.599Z,1018.22
2017-06-11T00:10:50.632Z,1018.25
2017-06-11T00:11:50.670Z,1018.26
2017-06-11T00:12:50.694Z,1018.21
2017-06-11T00:13:50.738Z,1018.21
2017-06-11T00:14:50.774Z,1018.13
2017-06-11T00:15:50.815Z,1018.15
2017-06-11T00:16:50.850Z,1018.12
2017-06-11T00:17:50.883Z,1018.21
2017-06-11T00:18:50.922Z,1018.24
2017-06-11T00:19:50.955Z,1018.24
2017-06-11T00:20:50.992Z,1018.22
2017-06-11T00:21:51.026Z,1018.24
2017-06-11T00:22:51.069Z,1018.16
2017-06-11T00:23:51.099Z,1018.23
2017-06-11T00:24:51.142Z,1018.21
2017-06-11T00:25:51.167Z,1018.2
2017-06-11T00:26:51.201Z,1018.22
2017-06-11T00:27:51.234Z,1018.25
2017-06-11T00:28:51.276Z,1018.2
2017-06-11T00:29:51.314Z,1018.21
2017-06-11T00:30:51.343Z,1018.18
2017-06-11T00:31:51.381Z,1018.17
2017-06-11T00:32:51.420Z,1018.14
2017-06-11T00:33:51.453Z,1018.14
2017-06-11T00:34:51.491Z,1018.14
2017-06-11T00:35:51.524Z,1018.1
2017-06-11T00:36:51.556Z,1018.16
2017-06-11T00:37:51.593Z,1018.14
2017-06-11T00:38:51.633Z,1018.17
2017-06-11T00:39:51.664Z,1018.12
2017-06-11T00:40:51.700Z,1018.17
2017-06-11T00:41:51.737Z,1018.19
2017-06-11T00:42:51.771Z,1018.19
2017-06-11T00:43:51.792Z,1018.15
2017-06-11T00:44:51.839Z,1018.17
2017-06-11T00:45:51.873Z,1018.15
2017-06-11T00:46:51.910Z,1018.11
2017-06-11T00:47:51.932Z,1018.09
2017-06-11T00:48:51.981Z,1018.15
2017-06-11T00:49:52.021Z,1018.11
2017-06-11T00:50:52.056Z,1018.08
2017-06-11T00:51:52.071Z,1018.09
2017-06-11T00:52:52.126Z,1018.07
2017-06-11T00:53:52.152Z,1018.07
2017-06-11T00:54:52.192Z,1018.1
2017-06-11T00:55:52.231Z,1018.07
2017-06-11T00:56:52.262Z,1018.06
2017-06-11T00:57:52.300Z,1018.07
2017-06-11T00:58:52.334Z,1018.02
2017-06-11T00:59:52.368Z,1018.02
2017-06-11T01:00:52.401Z,1018.06
2017-06-11T01:01:52.436Z,1018.04
2017-06-11T01:02:52.469Z,1018.11
2017-06-11T01:03:52.509Z,1018.06
2017-06-11T01:04:52.541Z,1018.05
2017-06-11T01:05:52.777Z,1018.06
2017-06-11T01:06:52.616Z,1018.03
2017-06-11T01:07:52.647Z,1018.05
2017-06-11T01:08:52.688Z,1018.02
2017-06-11T01:09:52.722Z,1018.02
2017-06-11T01:10:52.751Z,1018.02
2017-06-11T01:11:52.786Z,1018.04
2017-06-11T01:12:52.825Z,1018.04
2017-06-11T01:13:52.860Z,1018.06
2017-06-11T01:14:52.893Z,1018.03
2017-06-11T01:15:52.924Z,1018
2017-06-11T01:16:52.960Z,1017.96
2017-06-11T01:17:53.001Z,1017.95
2017-06-11T01:18:53.017Z,1018
2017-06-11T01:19:53.069Z,1017.99
2017-06-11T01:20:53.106Z,1018.02
2017-06-11T01:21:53.138Z,1018.01
2017-06-11T01:22:53.172Z,1018.06
2017-06-11T01:23:53.206Z,1017.99
2017-06-11T01:24:53.242Z,1017.96
2017-06-11T01:25:53.282Z,1017.97
2017-06-11T01:26:53.330Z,1017.94
2017-06-11T01:27:53.332Z,1017.95
2017-06-11T01:28:53.384Z,1017.96
2017-06-11T01:29:53.401Z,1017.98
2017-06-11T01:30:53.451Z,1017.91
2017-06-11T01:31:53.487Z,1017.93
2017-06-11T01:32:53.523Z,1017.89
2017-06-11T01:33:53.555Z,1017.91
2017-06-11T01:34:53.590Z,1017.89
2017-06-11T01:35:53.629Z,1017.87
2017-06-11T01:36:53.661Z,1017.88
2017-06-11T01:37:53.695Z,1017.9
2017-06-11T01:38:53.731Z,1017.92
2017-06-11T01:39:53.768Z,1017.84
2017-06-11T01:40:53.800Z,1017.83
2017-06-11T01:41:53.835Z,1017.87
2017-06-11T01:42:53.871Z,1017.86
2017-06-11T01:43:53.906Z,1017.89
2017-06-11T01:44:53.933Z,1017.84
2017-06-11T01:45:53.972Z,1017.85
2017-06-11T01:46:54.024Z,1017.86
2017-06-11T01:47:54.024Z,1017.86
2017-06-11T01:48:54.094Z,1017.87
2017-06-11T01:49:54.127Z,1017.87
2017-06-11T01:50:54.133Z,1017.89
2017-06-11T01:51:54.194Z,1017.91
2017-06-11T01:52:54.223Z,1017.89
2017-06-11T01:53:54.253Z,1017.89
2017-06-11T01:54:54.285Z,1017.89
2017-06-11T01:55:54.317Z,1017.9
2017-06-11T01:56:54.353Z,1017.87
2017-06-11T01:57:54.404Z,1017.85
2017-06-11T01:58:54.424Z,1017.89
2017-06-11T01:59:54.457Z,1017.85
2017-06-11T02:00:54.495Z,1017.85
2017-06-11T02:01:54.530Z,1017.84
2017-06-11T02:02:54.564Z,1017.92
2017-06-11T02:03:54.599Z,1017.86
2017-06-11T02:04:54.631Z,1017.9
2017-06-11T02:05:54.673Z,1017.89
2017-06-11T02:06:54.685Z,1017.83
2017-06-11T02:07:54.735Z,1017.87
2017-06-11T02:08:54.771Z,1017.89
2017-06-11T02:09:54.802Z,1017.88
2017-06-11T02:10:54.838Z,1017.92
2017-06-11T02:11:54.874Z,1017.9
2017-06-11T02:12:54.907Z,1017.88
2017-06-11T02:13:54.923Z,1017.89
2017-06-11T02:14:54.976Z,1017.85
2017-06-11T02:15:55.009Z,1017.87
2017-06-11T02:16:55.043Z,1017.86
2017-06-11T02:17:55.080Z,1017.87
2017-06-11T02:18:55.113Z,1017.83
2017-06-11T02:19:55.151Z,1017.82
2017-06-11T02:20:55.184Z,1017.8
2017-06-11T02:21:55.216Z,1017.88
2017-06-11T02:22:55.250Z,1017.8
2017-06-11T02:23:55.289Z,1017.82
2017-06-11T02:24:55.320Z,1017.83
2017-06-11T02:25:55.352Z,1017.8
2017-06-11T02:26:55.386Z,1017.77
2017-06-11T02:27:55.425Z,1017.82
2017-06-11T02:28:55.456Z,1017.85
2017-06-11T02:29:55.471Z,1017.82
2017-06-11T02:30:55.526Z,1017.8
2017-06-11T02:31:55.560Z,1017.78
2017-06-11T02:32:55.591Z,1017.8
2017-06-11T02:33:55.628Z,1017.78
2017-06-11T02:34:55.885Z,1017.83
2017-06-11T02:35:55.686Z,1017.81
2017-06-11T02:36:55.729Z,1017.78
2017-06-11T02:37:55.757Z,1017.77
2017-06-11T02:38:55.782Z,1017.77
2017-06-11T02:39:55.833Z,1017.76
2017-06-11T02:40:55.873Z,1017.78
2017-06-11T02:41:55.884Z,1017.72
2017-06-11T02:42:55.935Z,1017.75
2017-06-11T02:43:55.973Z,1017.76
2017-06-11T02:44:56.005Z,1017.75
2017-06-11T02:45:56.039Z,1017.75
2017-06-11T02:46:56.103Z,1017.75
2017-06-11T02:47:56.105Z,1017.75
2017-06-11T02:48:56.142Z,1017.8
2017-06-11T02:49:56.179Z,1017.76
2017-06-11T02:50:56.208Z,1017.72
2017-06-11T02:51:56.242Z,1017.77
2017-06-11T02:52:56.278Z,1017.77
2017-06-11T02:53:56.313Z,1017.73
2017-06-11T02:54:56.346Z,1017.75
2017-06-11T02:55:56.382Z,1017.72
2017-06-11T02:56:56.412Z,1017.78
2017-06-11T02:57:56.447Z,1017.79
2017-06-11T02:58:56.483Z,1017.8
2017-06-11T02:59:56.517Z,1017.77
2017-06-11T03:00:56.553Z,1017.79
2017-06-11T03:01:56.585Z,1017.77
2017-06-11T03:02:56.621Z,1017.8
2017-06-11T03:03:56.653Z,1017.82
2017-06-11T03:04:56.689Z,1017.77
2017-06-11T03:05:56.726Z,1017.78
2017-06-11T03:06:56.754Z,1017.82
2017-06-11T03:07:56.787Z,1017.77
2017-06-11T03:08:56.824Z,1017.75
2017-06-11T03:09:56.858Z,1017.75
2017-06-11T03:10:56.890Z,1017.8
2017-06-11T03:11:56.926Z,1017.8
2017-06-11T03:12:56.946Z,1017.82
2017-06-11T03:13:56.998Z,1017.84
2017-06-11T03:14:57.028Z,1017.85
2017-06-11T03:15:57.062Z,1017.85
2017-06-11T03:16:57.092Z,1017.86
2017-06-11T03:17:57.129Z,1017.84
2017-06-11T03:18:57.160Z,1017.83
2017-06-11T03:19:57.186Z,1017.78
2017-06-11T03:20:57.230Z,1017.76
2017-06-11T03:21:57.264Z,1017.7
2017-06-11T03:22:57.305Z,1017.76
2017-06-11T03:23:57.331Z,1017.75
2017-06-11T03:24:57.372Z,1017.67
2017-06-11T03:25:57.402Z,1017.7
2017-06-11T03:26:57.437Z,1017.76
2017-06-11T03:27:57.454Z,1017.68
2017-06-11T03:28:57.505Z,1017.67
2017-06-11T03:29:57.538Z,1017.7
2017-06-11T03:30:57.574Z,1017.68
2017-06-11T03:31:57.603Z,1017.7
2017-06-11T03:32:57.645Z,1017.7
2017-06-11T03:33:57.677Z,1017.7
2017-06-11T03:34:57.691Z,1017.76
2017-06-11T03:35:57.741Z,1017.77
2017-06-11T03:36:57.779Z,1017.75
2017-06-11T03:37:57.791Z,1017.75
2017-06-11T03:38:57.844Z,1017.74
2017-06-11T03:39:57.880Z,1017.78
2017-06-11T03:40:57.897Z,1017.78
2017-06-11T03:41:57.947Z,1017.74
2017-06-11T03:42:57.981Z,1017.76
2017-06-11T03:43:58.016Z,1017.78
2017-06-11T03:44:58.034Z,1017.78
2017-06-11T03:45:58.082Z,1017.81
2017-06-11T03:46:58.115Z,1017.82
2017-06-11T03:47:58.152Z,1017.74
2017-06-11T03:48:58.185Z,1017.8
2017-06-11T03:49:58.217Z,1017.82
2017-06-11T03:50:58.255Z,1017.81
2017-06-11T03:51:58.287Z,1017.82
2017-06-11T03:52:58.320Z,1017.87
2017-06-11T03:53:58.355Z,1017.83
2017-06-11T03:54:58.388Z,1017.89
2017-06-11T03:55:58.424Z,1017.87
2017-06-11T03:56:58.457Z,1017.9
2017-06-11T03:57:58.514Z,1017.91
2017-06-11T03:58:58.526Z,1017.95
2017-06-11T03:59:58.558Z,1017.91
2017-06-11T04:00:58.593Z,1017.92
2017-06-11T04:01:58.627Z,1017.92
2017-06-11T04:02:58.663Z,1017.88
2017-06-11T04:03:58.674Z,1017.91
2017-06-11T04:04:58.727Z,1017.89
2017-06-11T04:05:58.769Z,1017.89
2017-06-11T04:06:58.790Z,1017.94
2017-06-11T04:07:58.832Z,1017.89
2017-06-11T04:08:58.856Z,1017.9
2017-06-11T04:09:58.903Z,1017.89
2017-06-11T04:10:58.935Z,1017.97
2017-06-11T04:11:58.972Z,1018.11
2017-06-11T04:12:59.006Z,1018.25
2017-06-11T04:13:59.039Z,1018.33
2017-06-11T04:14:59.074Z,1018.38
2017-06-11T04:15:59.085Z,1018.22
2017-06-11T04:16:59.141Z,1018.15
2017-06-11T04:17:59.181Z,1018.23
2017-06-11T04:18:59.210Z,1018.23
2017-06-11T04:19:59.244Z,1018.23
2017-06-11T04:20:59.284Z,1018.26
2017-06-11T04:21:59.317Z,1018.44
2017-06-11T04:22:59.353Z,1018.73
2017-06-11T04:23:59.389Z,1018.78
2017-06-11T04:24:59.422Z,1018.93
2017-06-11T04:25:59.463Z,1018.96
2017-06-11T04:26:59.491Z,1018.96
2017-06-11T04:27:59.531Z,1018.84
2017-06-11T04:28:59.572Z,1018.71
2017-06-11T04:29:59.602Z,1018.44
2017-06-11T04:30:59.643Z,1018.11
2017-06-11T04:31:59.688Z,1017.96
2017-06-11T04:32:59.721Z,1018.02
2017-06-11T04:33:59.755Z,1018.01
2017-06-11T04:34:59.786Z,1018.02
2017-06-11T04:35:59.829Z,1018.01
2017-06-11T04:36:59.871Z,1018.09
2017-06-11T04:37:59.907Z,1018.09
2017-06-11T04:38:59.941Z,1018.04
2017-06-11T04:39:59.981Z,1018.21
2017-06-11T04:41:00.017Z,1018.3
2017-06-11T04:42:00.056Z,1018.65
2017-06-11T04:43:00.094Z,1018.62
2017-06-11T04:44:00.132Z,1018.9
2017-06-11T04:45:00.168Z,1019.03
2017-06-11T04:46:00.234Z,1018.49
2017-06-11T04:47:00.261Z,1018.25
2017-06-11T04:48:00.292Z,1018.24
2017-06-11T04:49:00.314Z,1018.2
2017-06-11T04:50:00.354Z,1018.08
2017-06-11T04:51:00.393Z,1018.18
2017-06-11T04:52:00.434Z,1018.13
2017-06-11T04:53:00.473Z,1018.1
2017-06-11T04:54:00.498Z,1018.06
2017-06-11T04:55:00.551Z,1018.02
2017-06-11T04:56:00.568Z,1018.01
2017-06-11T04:57:00.617Z,1018.03
2017-06-11T04:58:00.660Z,1018.04
2017-06-11T04:59:00.697Z,1018.03
2017-06-11T05:00:00.712Z,1018.08
2017-06-11T05:01:00.772Z,1018.05
2017-06-11T05:02:00.813Z,1018.08
2017-06-11T05:03:00.845Z,1018.07
2017-06-11T05:04:00.884Z,1018.13
2017-06-11T05:05:00.924Z,1018.03
2017-06-11T05:06:00.961Z,1017.99
2017-06-11T05:07:01.001Z,1018.05
2017-06-11T05:08:01.035Z,1018.03
2017-06-11T05:09:01.076Z,1017.98
2017-06-11T05:10:01.106Z,1017.98
2017-06-11T05:11:01.149Z,1017.97
2017-06-11T05:12:01.188Z,1018.01
2017-06-11T05:13:01.221Z,1018.11
2017-06-11T05:14:01.259Z,1018.11
2017-06-11T05:15:01.296Z,1018.07
2017-06-11T05:16:01.338Z,1017.99
2017-06-11T05:17:01.375Z,1017.92
2017-06-11T05:18:01.410Z,1017.91
2017-06-11T05:19:01.451Z,1017.93
2017-06-11T05:20:01.492Z,1017.9
2017-06-11T05:21:01.528Z,1017.88
2017-06-11T05:22:01.565Z,1017.9
2017-06-11T05:23:01.604Z,1017.88
2017-06-11T05:24:01.629Z,1017.87
2017-06-11T05:25:01.679Z,1017.91
2017-06-11T05:26:01.716Z,1017.85
2017-06-11T05:27:01.739Z,1017.8
2017-06-11T05:28:01.794Z,1017.8
2017-06-11T05:29:01.834Z,1017.8
2017-06-11T05:30:01.869Z,1017.79
2017-06-11T05:31:01.909Z,1017.79
2017-06-11T05:32:01.949Z,1017.77
2017-06-11T05:33:01.985Z,1017.75
2017-06-11T05:34:02.021Z,1017.74
2017-06-11T05:35:02.061Z,1017.77
2017-06-11T05:36:02.101Z,1017.75
2017-06-11T05:37:02.205Z,1017.82
2017-06-11T05:38:02.182Z,1017.8
2017-06-11T05:39:02.214Z,1017.8
2017-06-11T05:40:02.254Z,1017.76
2017-06-11T05:41:02.281Z,1017.78
2017-06-11T05:42:02.330Z,1017.76
2017-06-11T05:43:02.370Z,1017.75
2017-06-11T05:44:02.409Z,1017.8
2017-06-11T05:45:02.448Z,1017.77
2017-06-11T05:46:02.481Z,1017.82
2017-06-11T05:47:02.511Z,1017.83
2017-06-11T05:48:02.565Z,1017.82
2017-06-11T05:49:02.602Z,1017.83
2017-06-11T05:50:02.623Z,1017.82
2017-06-11T05:51:02.682Z,1017.87
2017-06-11T05:52:02.718Z,1017.83
2017-06-11T05:53:02.746Z,1017.8
2017-06-11T05:54:02.798Z,1017.82
2017-06-11T05:55:02.836Z,1017.85
2017-06-11T05:56:02.870Z,1017.86
2017-06-11T05:57:02.910Z,1017.92
2017-06-11T05:58:02.951Z,1017.9
2017-06-11T05:59:02.987Z,1017.83
2017-06-11T06:00:03.026Z,1017.84
2017-06-11T06:01:03.218Z,1017.89
2017-06-11T06:02:03.122Z,1017.92
2017-06-11T06:03:03.144Z,1017.91
2017-06-11T06:04:03.184Z,1018
2017-06-11T06:05:03.226Z,1017.91
2017-06-11T06:06:03.259Z,1017.91
2017-06-11T06:07:03.284Z,1017.93
2017-06-11T06:08:03.336Z,1017.93
2017-06-11T06:09:03.376Z,1017.96
2017-06-11T06:10:03.458Z,1017.98
2017-06-11T06:11:03.717Z,1018.02
2017-06-11T06:12:03.566Z,1017.96
2017-06-11T06:13:03.584Z,1017.95
2017-06-11T06:14:03.572Z,1018.05
2017-06-11T06:15:04.265Z,1018.02
2017-06-11T06:16:03.654Z,1018.04
2017-06-11T06:17:04.357Z,1018
2017-06-11T06:18:04.375Z,1018.09
2017-06-11T06:19:04.051Z,1018.04
2017-06-11T06:20:04.104Z,1018
2017-06-11T06:21:03.855Z,1018.1
2017-06-11T06:22:03.928Z,1018.06
2017-06-11T06:23:03.930Z,1018.11
2017-06-11T06:24:04.015Z,1018.07
2017-06-11T06:25:04.018Z,1018.06
2017-06-11T06:26:04.060Z,1018.11
2017-06-11T06:27:04.084Z,1018.12
2017-06-11T06:28:04.144Z,1018.07
2017-06-11T06:29:04.178Z,1018.05
2017-06-11T06:30:04.242Z,1018.08
2017-06-11T06:31:04.268Z,1018.1
2017-06-11T06:32:04.312Z,1018.16
2017-06-11T06:33:04.354Z,1018.08
2017-06-11T06:34:04.607Z,1018.1
2017-06-11T06:35:04.473Z,1018.06
2017-06-11T06:36:04.489Z,1018.11
2017-06-11T06:37:04.525Z,1018.07
2017-06-11T06:38:04.577Z,1018.02
2017-06-11T06:39:04.646Z,1017.99
2017-06-11T06:40:04.658Z,1018.01
2017-06-11T06:41:04.733Z,1017.97
2017-06-11T06:42:04.752Z,1017.98
2017-06-11T06:43:04.801Z,1018.03
2017-06-11T06:44:04.839Z,1018.04
2017-06-11T06:45:04.887Z,1018.04
2017-06-11T06:46:04.915Z,1018.04
2017-06-11T06:47:05.584Z,1018.03
2017-06-11T06:48:05.016Z,1017.99
2017-06-11T06:49:05.065Z,1018
2017-06-11T06:50:05.125Z,1017.96
2017-06-11T06:51:05.160Z,1017.95
2017-06-11T06:52:05.206Z,1017.95
2017-06-11T06:53:05.246Z,1017.98
2017-06-11T06:54:05.296Z,1017.97
2017-06-11T06:55:05.325Z,1017.89
2017-06-11T06:56:05.386Z,1017.93
2017-06-11T06:57:05.412Z,1017.95
2017-06-11T06:58:05.480Z,1017.99
2017-06-11T06:59:05.530Z,1017.95
2017-06-11T07:00:05.557Z,1018.01
2017-06-11T07:01:05.618Z,1017.97
2017-06-11T07:02:05.665Z,1017.99
2017-06-11T07:03:05.713Z,1018
2017-06-11T07:04:05.757Z,1018
2017-06-11T07:05:05.804Z,1017.96
2017-06-11T07:06:05.847Z,1018.02
2017-06-11T07:07:05.898Z,1017.97
2017-06-11T07:08:05.949Z,1017.93
2017-06-11T07:09:05.991Z,1017.99
2017-06-11T07:10:06.036Z,1017.89
2017-06-11T07:11:06.084Z,1017.94
2017-06-11T07:12:06.133Z,1017.91
2017-06-11T07:13:06.181Z,1017.87
2017-06-11T07:14:06.225Z,1017.88
2017-06-11T07:15:06.277Z,1017.83
2017-06-11T07:16:06.320Z,1017.83
2017-06-11T07:17:06.370Z,1017.87
2017-06-11T07:18:06.413Z,1017.84
2017-06-11T07:19:06.464Z,1017.88
2017-06-11T07:20:06.512Z,1017.85
2017-06-11T07:21:06.560Z,1017.85
2017-06-11T07:22:06.609Z,1017.83
2017-06-11T07:23:06.657Z,1017.87
2017-06-11T07:24:06.704Z,1017.91
2017-06-11T07:25:06.746Z,1017.9
2017-06-11T07:26:06.798Z,1017.94
2017-06-11T07:27:06.850Z,1017.9
2017-06-11T07:28:06.890Z,1017.91
2017-06-11T07:29:06.943Z,1017.93
2017-06-11T07:30:06.986Z,1017.95
2017-06-11T07:31:07.037Z,1017.89
2017-06-11T07:32:07.089Z,1017.92
2017-06-11T07:33:07.135Z,1017.87
2017-06-11T07:34:07.166Z,1017.79
2017-06-11T07:35:07.230Z,1017.72
2017-06-11T07:36:07.269Z,1017.88
2017-06-11T07:37:07.326Z,1017.84
2017-06-11T07:38:07.371Z,1017.81
2017-06-11T07:39:07.424Z,1017.82
2017-06-11T07:40:07.467Z,1017.81
2017-06-11T07:41:07.519Z,1017.85
2017-06-11T07:42:07.571Z,1017.8
2017-06-11T07:43:07.617Z,1017.76
2017-06-11T07:44:07.669Z,1017.75
2017-06-11T07:45:07.714Z,1017.71
2017-06-11T07:46:07.750Z,1017.73
2017-06-11T07:47:07.812Z,1017.75
2017-06-11T07:48:07.862Z,1017.75
2017-06-11T07:49:07.911Z,1017.75
2017-06-11T07:50:07.957Z,1017.7
2017-06-11T07:51:08.025Z,1017.74
2017-06-11T07:52:08.082Z,1017.71
2017-06-11T07:53:08.118Z,1017.74
2017-06-11T07:54:08.155Z,1017.73
2017-06-11T07:55:08.404Z,1017.73
2017-06-11T07:56:08.264Z,1017.75
2017-06-11T07:57:08.300Z,1017.73
2017-06-11T07:58:08.346Z,1017.78
2017-06-11T07:59:08.399Z,1017.84
2017-06-11T08:00:08.454Z,1017.81
2017-06-11T08:01:08.493Z,1017.83
2017-06-11T08:02:08.541Z,1017.83
2017-06-11T08:03:08.575Z,1017.91
2017-06-11T08:04:08.642Z,1017.84
2017-06-11T08:05:08.689Z,1017.85
2017-06-11T08:06:08.741Z,1017.83
2017-06-11T08:07:08.789Z,1017.84
2017-06-11T08:08:08.841Z,1017.83
2017-06-11T08:09:08.873Z,1017.82
2017-06-11T08:10:08.937Z,1017.85
2017-06-11T08:11:09.030Z,1017.85
2017-06-11T08:12:09.042Z,1017.84
2017-06-11T08:13:09.094Z,1017.84
2017-06-11T08:14:09.138Z,1017.87
2017-06-11T08:15:09.184Z,1017.83
2017-06-11T08:16:09.237Z,1017.88
2017-06-11T08:17:09.288Z,1017.8
2017-06-11T08:18:09.340Z,1017.82
2017-06-11T08:19:09.391Z,1017.82
2017-06-11T08:20:09.438Z,1017.76
2017-06-11T08:21:09.489Z,1017.85
2017-06-11T08:22:09.537Z,1017.89
2017-06-11T08:23:09.591Z,1017.88
2017-06-11T08:24:09.635Z,1017.92
2017-06-11T08:25:09.689Z,1017.87
2017-06-11T08:26:09.740Z,1017.8
2017-06-11T08:27:09.794Z,1017.74
2017-06-11T08:28:09.825Z,1017.67
2017-06-11T08:29:09.890Z,1017.73
2017-06-11T08:30:09.943Z,1017.77
2017-06-11T08:31:09.986Z,1017.87
2017-06-11T08:32:10.039Z,1017.75
2017-06-11T08:33:10.092Z,1017.71
2017-06-11T08:34:10.143Z,1017.77
2017-06-11T08:35:10.197Z,1017.9
2017-06-11T08:36:10.242Z,1017.85
2017-06-11T08:37:10.296Z,1017.6
2017-06-11T08:38:10.324Z,1017.48
2017-06-11T08:39:10.397Z,1017.66
2017-06-11T08:40:10.447Z,1017.62
2017-06-11T08:41:10.498Z,1017.75
2017-06-11T08:42:10.546Z,1017.69
2017-06-11T08:43:10.599Z,1017.82
2017-06-11T08:44:10.648Z,1017.89
2017-06-11T08:45:10.695Z,1017.84
2017-06-11T08:46:10.752Z,1017.86
2017-06-11T08:47:10.799Z,1017.87
2017-06-11T08:48:10.856Z,1017.83
2017-06-11T08:49:10.905Z,1017.76
2017-06-11T08:50:10.956Z,1017.76
2017-06-11T08:51:10.996Z,1017.72
2017-06-11T08:52:11.057Z,1017.73
2017-06-11T08:53:11.107Z,1017.72
2017-06-11T08:54:11.163Z,1017.74
2017-06-11T08:55:11.313Z,1017.74
2017-06-11T08:56:11.263Z,1017.78
2017-06-11T08:57:11.303Z,1017.79
2017-06-11T08:58:11.368Z,1017.75
2017-06-11T08:59:11.442Z,1017.75
2017-06-11T09:00:11.473Z,1017.82
2017-06-11T09:01:11.524Z,1017.79
2017-06-11T09:02:11.573Z,1017.8
2017-06-11T09:03:11.626Z,1017.77
2017-06-11T09:04:11.685Z,1017.61
2017-06-11T09:05:11.734Z,1017.74
2017-06-11T09:06:11.785Z,1017.81
2017-06-11T09:07:11.838Z,1017.81
2017-06-11T09:08:11.894Z,1017.81
2017-06-11T09:09:11.928Z,1017.8
2017-06-11T09:10:11.998Z,1017.81
2017-06-11T09:11:12.049Z,1017.53
2017-06-11T09:12:12.103Z,1017.39
2017-06-11T09:13:12.153Z,1017.56
2017-06-11T09:14:12.209Z,1017.61
2017-06-11T09:15:12.257Z,1017.62
2017-06-11T09:16:12.294Z,1017.66
2017-06-11T09:17:12.363Z,1017.72
2017-06-11T09:18:12.413Z,1017.61
2017-06-11T09:19:12.467Z,1017.67
2017-06-11T09:20:12.521Z,1017.68
2017-06-11T09:21:12.565Z,1017.78
2017-06-11T09:22:12.626Z,1017.8
2017-06-11T09:23:12.677Z,1017.74
2017-06-11T09:24:12.733Z,1017.61
2017-06-11T09:25:12.789Z,1017.71
2017-06-11T09:26:12.837Z,1017.43
2017-06-11T09:27:12.898Z,1017.57
2017-06-11T09:28:12.942Z,1017.53
2017-06-11T09:29:13.001Z,1017.42
2017-06-11T09:30:13.051Z,1017.28
2017-06-11T09:31:13.107Z,1017.32
2017-06-11T09:32:13.155Z,1017.4
2017-06-11T09:33:13.206Z,1017.37
2017-06-11T09:34:13.265Z,1017.5
2017-06-11T09:35:13.314Z,1017.48
2017-06-11T09:36:13.373Z,1017.41
2017-06-11T09:37:13.423Z,1017.36
2017-06-11T09:38:13.476Z,1017.45
2017-06-11T09:39:13.531Z,1017.5
2017-06-11T09:40:13.582Z,1017.49
2017-06-11T09:41:13.634Z,1017.42
2017-06-11T09:42:13.694Z,1017.46
2017-06-11T09:43:13.741Z,1017.43
2017-06-11T09:44:13.802Z,1017.42
2017-06-11T09:45:13.852Z,1017.41
2017-06-11T09:46:13.906Z,1017.31
2017-06-11T09:47:13.957Z,1017.31
2017-06-11T09:48:14.009Z,1017.34
2017-06-11T09:49:14.067Z,1017.43
2017-06-11T09:50:14.103Z,1017.39
2017-06-11T09:51:14.174Z,1017.38
2017-06-11T09:52:14.227Z,1017.35
2017-06-11T09:53:14.282Z,1017.16
2017-06-11T09:54:14.332Z,1017.24
2017-06-11T09:55:14.394Z,1017.28
2017-06-11T09:56:14.429Z,1017.31
2017-06-11T09:57:14.499Z,1017.29
2017-06-11T09:58:14.550Z,1017.12
2017-06-11T09:59:14.606Z,1017.15
2017-06-11T10:00:15.847Z,1017.2
2017-06-11T10:01:14.710Z,1017.13
2017-06-11T10:02:14.762Z,1017.06
2017-06-11T10:03:14.819Z,1017.01
2017-06-11T10:04:14.875Z,1017.09
2017-06-11T10:05:14.928Z,1017.17
2017-06-11T10:06:14.981Z,1017.18
2017-06-11T10:07:15.032Z,1017.22
2017-06-11T10:08:15.090Z,1017.18
2017-06-11T10:09:15.142Z,1017.2
2017-06-11T10:10:15.192Z,1017.17
2017-06-11T10:11:15.248Z,1017.21
2017-06-11T10:12:15.303Z,1017.22
2017-06-11T10:13:15.357Z,1016.99
2017-06-11T10:14:15.408Z,1017.14
2017-06-11T10:15:15.459Z,1017.08
2017-06-11T10:16:15.516Z,1017
2017-06-11T10:17:15.567Z,1017.22
2017-06-11T10:18:15.619Z,1017.35
2017-06-11T10:19:15.672Z,1017.33
2017-06-11T10:20:15.722Z,1017.46
2017-06-11T10:21:15.775Z,1017.56
2017-06-11T10:22:15.814Z,1017.52
2017-06-11T10:23:15.879Z,1017.54
2017-06-11T10:24:15.932Z,1017.34
2017-06-11T10:25:15.982Z,1017.38
2017-06-11T10:26:16.032Z,1017.57
2017-06-11T10:27:16.086Z,1017.47
2017-06-11T10:28:16.134Z,1017.39
2017-06-11T10:29:16.182Z,1017.61
2017-06-11T10:30:16.234Z,1017.7
2017-06-11T10:31:16.284Z,1017.7
2017-06-11T10:32:16.335Z,1017.6
2017-06-11T10:33:16.384Z,1017.38
2017-06-11T10:34:16.422Z,1017.48
2017-06-11T10:35:16.484Z,1017.62
2017-06-11T10:36:16.530Z,1017.7
2017-06-11T10:37:16.579Z,1017.47
2017-06-11T10:38:16.630Z,1017.47
2017-06-11T10:39:16.678Z,1017.35
2017-06-11T10:40:16.713Z,1017.39
2017-06-11T10:41:16.773Z,1017.29
2017-06-11T10:42:16.816Z,1017.29
2017-06-11T10:43:16.875Z,1017.43
2017-06-11T10:44:16.916Z,1017.48
2017-06-11T10:45:16.960Z,1017.6
2017-06-11T10:46:17.012Z,1017.94
2017-06-11T10:47:17.058Z,1017.85
2017-06-11T10:48:17.103Z,1018.08
2017-06-11T10:49:17.147Z,1017.99
2017-06-11T10:50:17.177Z,1018.61
2017-06-11T10:51:17.242Z,1018.56
2017-06-11T10:52:17.288Z,1017.83
2017-06-11T10:53:17.319Z,1018.17
2017-06-11T10:54:17.382Z,1018.04
2017-06-11T10:55:17.425Z,1018.38
2017-06-11T10:56:17.473Z,1017.97
2017-06-11T10:57:17.515Z,1017.27
2017-06-11T10:58:17.560Z,1016.42
2017-06-11T10:59:17.607Z,1016.1
2017-06-11T11:00:17.650Z,1015.99
2017-06-11T11:01:17.699Z,1016.03
2017-06-11T11:02:17.740Z,1016.05
2017-06-11T11:03:17.787Z,1015.94
2017-06-11T11:04:17.832Z,1015.96
2017-06-11T11:05:17.878Z,1015.97
2017-06-11T11:06:17.909Z,1015.93
2017-06-11T11:07:17.964Z,1015.99
2017-06-11T11:08:18.011Z,1015.94
2017-06-11T11:09:18.039Z,1015.93
2017-06-11T11:10:18.104Z,1015.86
2017-06-11T11:11:18.143Z,1015.89
2017-06-11T11:12:18.188Z,1015.82
2017-06-11T11:13:18.229Z,1015.74
2017-06-11T11:14:18.277Z,1015.71
2017-06-11T11:15:18.314Z,1015.72
2017-06-11T11:16:18.360Z,1015.71
2017-06-11T11:17:18.404Z,1015.65
2017-06-11T11:18:18.447Z,1015.7
2017-06-11T11:19:18.495Z,1015.66
2017-06-11T11:20:18.534Z,1015.71
2017-06-11T11:21:18.575Z,1015.65
2017-06-11T11:22:18.624Z,1015.61
2017-06-11T11:23:18.663Z,1015.58
2017-06-11T11:24:18.709Z,1015.59
2017-06-11T11:25:18.755Z,1015.55
2017-06-11T11:26:18.793Z,1015.5
2017-06-11T11:27:18.838Z,1015.51
2017-06-11T11:28:18.879Z,1015.55
2017-06-11T11:29:18.922Z,1015.53
2017-06-11T11:30:18.966Z,1015.54
2017-06-11T11:31:19.011Z,1015.49
2017-06-11T11:32:19.051Z,1015.47
2017-06-11T11:33:19.095Z,1015.48
2017-06-11T11:34:19.138Z,1015.45
2017-06-11T11:35:19.177Z,1015.52
2017-06-11T11:36:19.221Z,1015.45
2017-06-11T11:37:19.266Z,1015.33
2017-06-11T11:38:19.308Z,1015.35
2017-06-11T11:39:19.353Z,1015.28
2017-06-11T11:40:19.394Z,1015.31
2017-06-11T11:41:19.437Z,1015.31
2017-06-11T11:42:19.477Z,1015.36
2017-06-11T11:43:19.521Z,1015.39
2017-06-11T11:44:19.564Z,1015.3
2017-06-11T11:45:19.611Z,1015.28
2017-06-11T11:46:19.633Z,1015.32
2017-06-11T11:47:19.698Z,1015.32
2017-06-11T11:48:19.712Z,1015.22
2017-06-11T11:49:19.774Z,1015.25
2017-06-11T11:50:19.817Z,1015.21
2017-06-11T11:51:19.862Z,1015.2
2017-06-11T11:52:19.901Z,1015.33
2017-06-11T11:53:19.945Z,1015.2
2017-06-11T11:54:19.988Z,1015.22
2017-06-11T11:55:20.014Z,1015.18
2017-06-11T11:56:20.069Z,1015.17
2017-06-11T11:57:20.112Z,1015.18
2017-06-11T11:58:20.151Z,1015.11
2017-06-11T11:59:20.193Z,1015.09
2017-06-11T12:00:20.234Z,1015.07
2017-06-11T12:01:20.276Z,1015.03
2017-06-11T12:02:20.315Z,1015.08
2017-06-11T12:03:20.361Z,1015.09
2017-06-11T12:04:20.405Z,1015.05
2017-06-11T12:05:20.444Z,1014.99
2017-06-11T12:06:20.486Z,1015
2017-06-11T12:07:20.516Z,1014.99
2017-06-11T12:08:20.572Z,1015.03
2017-06-11T12:09:20.613Z,1015